Time;durP1;ratioP1;P1;durP2;ratioP2;P2;SDS_P1;SDS_P2;PMS_P1;PMS_P2;Temp;Humidity;BMP_temperature;BMP_pressure;BME280_temperature;BME280_humidity;BME280_pressure;Samples;Min_cycle;Max_cycle;Signal;HPM_P1;HPM_P2
2022/06/02 00:00:58;;;;;;;8.97;7.70;;;;;;;11.35;100.00;101922.78;4965863;28;20479;-83
2022/06/02 00:03:39;;;;;;;10.10;7.80;;;;;;;11.35;100.00;101907.50;4967334;28;20444;-82
2022/06/02 00:06:15;;;;;;;7.13;5.97;;;;;;;11.12;100.00;101923.56;4969516;28;20493;-84
2022/06/02 00:09:25;;;;;;;7.87;6.80;;;;;;;10.72;100.00;101895.06;4959456;28;21091;-85
2022/06/02 00:11:56;;;;;;;7.87;6.37;;;;;;;11.21;100.00;101927.06;4922459;28;20460;-85
2022/06/02 00:14:33;;;;;;;4.97;4.47;;;;;;;11.48;100.00;101921.16;4975021;28;20412;-85
2022/06/02 00:17:20;;;;;;;4.33;3.93;;;;;;;11.49;100.00;101913.97;4965364;28;20840;-84
2022/06/02 00:20:08;;;;;;;3.70;3.40;;;;;;;10.76;100.00;101818.56;4968038;28;20470;-83
2022/06/02 00:23:07;;;;;;;3.97;3.67;;;;;;;11.35;100.00;101914.72;4960972;28;20446;-84
2022/06/02 00:25:43;;;;;;;4.33;2.80;;;;;;;11.12;100.00;101912.84;4976826;28;20609;-83
2022/06/02 00:28:27;;;;;;;3.13;2.83;;;;;;;11.39;100.00;101918.72;4978126;28;20440;-83
2022/06/02 00:31:04;;;;;;;5.60;3.00;;;;;;;11.06;100.00;101927.78;4966928;28;20529;-82
2022/06/02 00:33:49;;;;;;;2.73;2.40;;;;;;;10.90;100.00;101916.28;4962708;28;20445;-82
2022/06/02 00:36:21;;;;;;;4.23;3.27;;;;;;;11.26;100.00;101930.06;4976847;28;20464;-82
2022/06/02 00:38:46;;;;;;;4.13;3.00;;;;;;;11.20;100.00;101922.69;4959707;28;20520;-85
2022/06/02 00:41:29;;;;;;;4.03;2.70;;;;;;;11.38;100.00;101933.16;4960127;28;20460;-83
2022/06/02 00:44:14;;;;;;;3.07;2.60;;;;;;;10.80;100.00;101941.50;4974733;28;20272;-83
2022/06/02 00:46:50;;;;;;;3.70;2.90;;;;;;;10.67;100.00;101951.91;4970411;28;20444;-83
2022/06/02 00:49:41;;;;;;;3.60;2.97;;;;;;;10.16;100.00;101928.03;4963387;28;20503;-83
2022/06/02 00:52:13;;;;;;;5.70;2.87;;;;;;;11.08;100.00;101949.94;4965524;28;20442;-83
2022/06/02 00:58:05;;;;;;;2.93;2.73;;;;;;;11.24;100.00;101942.81;4975600;28;20513;-83
2022/06/02 01:00:49;;;;;;;5.10;3.10;;;;;;;11.31;100.00;101943.75;4963182;28;20552;-83
2022/06/02 01:03:25;;;;;;;6.37;3.60;;;;;;;11.27;100.00;101948.66;4962673;28;20490;-84
2022/06/02 01:05:59;;;;;;;5.00;3.70;;;;;;;11.34;100.00;101946.13;4977497;28;20475;-84
2022/06/02 01:09:08;;;;;;;3.70;3.40;;;;;;;11.13;100.00;101968.19;4972807;28;20539;-84
2022/06/02 01:11:46;;;;;;;4.70;3.50;;;;;;;10.50;100.00;101832.25;4960849;28;20449;-84
2022/06/02 01:14:44;;;;;;;4.83;3.80;;;;;;;11.14;100.00;101948.41;4975865;28;20447;-84
2022/06/02 01:17:47;;;;;;;4.50;3.90;;;;;;;11.27;100.00;101966.63;4963165;28;20457;-82
2022/06/02 01:20:39;;;;;;;5.93;3.77;;;;;;;11.18;100.00;101965.00;4973527;28;20554;-82
2022/06/02 01:23:17;;;;;;;4.13;3.40;;;;;;;11.06;100.00;101964.56;4962094;28;20473;-81
2022/06/02 01:26:01;;;;;;;4.23;3.70;;;;;;;11.16;100.00;101972.38;4964725;28;20451;-82
2022/06/02 01:28:43;;;;;;;4.60;4.20;;;;;;;10.77;100.00;101975.91;4982333;23;20530;-81
2022/06/02 01:31:21;;;;;;;5.27;3.70;;;;;;;10.67;100.00;101983.28;4982891;28;20958;-81
2022/06/02 01:34:05;;;;;;;4.13;3.30;;;;;;;10.91;100.00;101971.66;4983668;28;20439;-81
2022/06/02 01:36:36;;;;;;;4.10;3.70;;;;;;;10.54;100.00;101908.72;5002356;28;20558;-81
2022/06/02 01:39:15;;;;;;;4.40;3.77;;;;;;;10.82;100.00;101949.38;4979658;28;20480;-81
2022/06/02 01:42:00;;;;;;;4.20;3.80;;;;;;;10.76;100.00;101952.72;4962239;28;20438;-83
2022/06/02 01:44:56;;;;;;;4.30;3.90;;;;;;;10.91;100.00;101969.81;4935766;28;20511;-83
2022/06/02 01:47:42;;;;;;;4.90;3.70;;;;;;;10.89;100.00;101947.66;4963141;28;20779;-84
2022/06/02 01:50:29;;;;;;;4.07;3.67;;;;;;;11.05;100.00;101965.53;4964490;28;20438;-83
2022/06/02 01:53:13;;;;;;;4.27;3.47;;;;;;;11.02;100.00;101958.69;4978659;28;20455;-82
2022/06/02 01:56:02;;;;;;;4.40;4.00;;;;;;;10.93;100.00;101956.19;4959268;28;20448;-83
2022/06/02 01:58:31;;;;;;;4.97;3.60;;;;;;;10.96;100.00;101963.91;4962660;28;20484;-83
2022/06/02 02:01:09;;;;;;;4.67;3.70;;;;;;;10.68;100.00;101928.63;4981447;28;20568;-83
2022/06/02 02:03:40;;;;;;;4.53;4.10;;;;;;;10.26;100.00;101849.25;4963141;28;20861;-83
2022/06/02 02:06:18;;;;;;;3.73;3.27;;;;;;;10.43;100.00;101879.56;4975808;28;20486;-83
2022/06/02 02:09:10;;;;;;;4.47;2.90;;;;;;;9.99;100.00;101789.69;4962048;28;20464;-83
2022/06/02 02:11:44;;;;;;;5.43;3.83;;;;;;;11.03;100.00;101967.59;4967092;28;20811;-83
2022/06/02 02:14:26;;;;;;;5.20;2.67;;;;;;;10.65;100.00;101932.50;4978512;28;20448;-84
2022/06/02 02:17:04;;;;;;;3.70;3.40;;;;;;;10.99;100.00;101966.25;4983998;28;20514;-84
2022/06/02 02:20:08;;;;;;;5.90;3.00;;;;;;;10.77;100.00;101965.16;4967819;28;20445;-83
2022/06/02 02:22:47;;;;;;;3.70;3.13;;;;;;;10.45;100.00;101875.72;4967229;28;20532;-83
2022/06/02 02:25:21;;;;;;;3.33;2.83;;;;;;;10.40;100.00;101881.59;4979896;28;20445;-83
2022/06/02 02:28:03;;;;;;;4.53;3.20;;;;;;;10.98;100.00;101970.78;4985813;28;20467;-83
2022/06/02 02:30:55;;;;;;;3.07;2.77;;;;;;;10.86;100.00;101967.63;4984656;28;20444;-84
2022/06/02 02:33:44;;;;;;;5.77;3.20;;;;;;;10.97;100.00;101969.13;4967773;28;20942;-83
2022/06/02 02:36:10;;;;;;;3.20;2.90;;;;;;;10.98;100.00;101968.09;4984117;28;20472;-84
2022/06/02 02:38:54;;;;;;;2.90;2.70;;;;;;;10.95;100.00;101965.75;4984334;28;20521;-84
2022/06/02 02:41:43;;;;;;;3.10;2.90;;;;;;;10.80;100.00;101964.81;4980994;28;20552;-84
2022/06/02 02:44:17;;;;;;;5.07;3.10;;;;;;;10.78;100.00;101969.50;4982568;28;20532;-82
2022/06/02 02:47:00;;;;;;;4.97;3.30;;;;;;;10.73;100.00;101969.19;4981386;28;20434;-84
2022/06/02 02:49:47;;;;;;;3.47;2.63;;;;;;;10.07;100.00;101864.72;4969708;28;20460;-85
2022/06/02 02:52:47;;;;;;;6.30;3.03;;;;;;;10.83;100.00;101977.88;4981644;28;20503;-84
2022/06/02 02:55:15;;;;;;;2.87;2.53;;;;;;;10.84;100.00;101971.50;4966339;28;20469;-84
2022/06/02 02:58:02;;;;;;;3.43;2.60;;;;;;;10.88;100.00;101964.78;4979852;28;20477;-85
2022/06/02 03:00:39;;;;;;;5.00;2.93;;;;;;;10.77;100.00;101974.03;4973388;28;20537;-82
2022/06/02 03:03:04;;;;;;;2.97;2.50;;;;;;;10.42;100.00;101977.16;4978466;28;20425;-85
2022/06/02 03:05:51;;;;;;;2.70;2.10;;;;;;;10.00;100.00;101882.47;4981316;28;20947;-84
2022/06/02 03:08:47;;;;;;;3.30;2.60;;;;;;;10.13;100.00;101874.75;4975223;28;20206;-85
2022/06/02 03:11:41;;;;;;;3.47;2.33;;;;;;;10.28;100.00;101899.06;4955405;28;20442;-84
2022/06/02 03:14:30;;;;;;;2.93;2.30;;;;;;;10.91;100.00;101983.25;4966284;28;20472;-85
2022/06/02 03:17:14;;;;;;;3.43;3.13;;;;;;;10.62;100.00;101986.50;4981485;28;21000;-85
2022/06/02 03:19:48;;;;;;;2.53;2.33;;;;;;;10.59;100.00;101960.03;4965950;28;20441;-84
2022/06/02 03:22:42;;;;;;;2.23;2.03;;;;;;;10.11;100.00;101859.84;4980749;28;20505;-83
2022/06/02 03:25:21;;;;;;;2.93;2.23;;;;;;;10.98;100.00;101989.56;4976603;28;20438;-85
2022/06/02 03:27:59;;;;;;;3.93;2.57;;;;;;;10.87;100.00;101987.25;4969521;28;20558;-84
2022/06/02 03:30:59;;;;;;;5.93;2.60;;;;;;;10.59;100.00;101934.03;4965162;28;20572;-85
2022/06/02 03:33:49;;;;;;;4.17;2.23;;;;;;;10.86;100.00;101990.97;4975189;28;20514;-84
2022/06/02 03:36:50;;;;;;;3.90;2.77;;;;;;;10.63;100.00;101950.59;4965913;28;20500;-85
2022/06/02 03:39:18;;;;;;;3.70;2.60;;;;;;;10.81;100.00;101991.47;4959848;28;20896;-83
2022/06/02 03:42:10;;;;;;;2.77;2.57;;;;;;;10.82;100.00;101997.69;4979107;28;20425;-82
2022/06/02 03:45:11;;;;;;;2.60;2.40;;;;;;;10.52;100.00;101967.06;4978387;28;20420;-83
2022/06/02 03:48:23;;;;;;;6.63;2.87;;;;;;;10.61;100.00;101966.03;4968711;28;20445;-83
2022/06/02 03:51:12;;;;;;;3.57;2.70;;;;;;;10.79;100.00;102008.75;5011918;28;20434;-83
2022/06/02 03:54:24;;;;;;;4.67;2.97;;;;;;;10.59;100.00;101970.75;4968807;28;20431;-82
2022/06/02 03:56:58;;;;;;;3.37;2.57;;;;;;;10.90;100.00;102008.38;4938930;28;21007;-83
2022/06/02 03:59:48;;;;;;;105.70;12.10;;;;;;;10.93;100.00;102016.09;4980359;28;20441;-80
2022/06/02 04:02:27;;;;;;;6.13;3.50;;;;;;;10.21;100.00;101900.69;4974878;28;20525;-81
2022/06/02 04:05:11;;;;;;;5.17;2.90;;;;;;;10.86;100.00;102018.63;4979103;28;20425;-81
2022/06/02 04:08:16;;;;;;;3.70;2.90;;;;;;;10.84;100.00;102028.69;4964796;28;20995;-81
2022/06/02 04:10:53;;;;;;;3.00;2.60;;;;;;;10.79;100.00;102027.53;4962708;28;20924;-79
2022/06/02 04:13:37;;;;;;;3.70;3.10;;;;;;;10.94;100.00;102028.53;4976281;28;20523;-82
2022/06/02 04:16:29;;;;;;;3.20;2.90;;;;;;;10.96;100.00;102025.66;4975542;28;20440;-79
2022/06/02 04:20:34;;;;;;;3.17;2.87;;;;;;;10.97;100.00;102032.72;4964730;28;20969;-80
2022/06/02 04:22:09;;;;;;;3.90;2.93;;;;;;;10.72;100.00;101997.88;4971261;28;20537;-81
2022/06/02 04:24:49;;;;;;;4.83;3.10;;;;;;;10.00;100.00;101908.44;4970000;28;20457;-79
2022/06/02 04:27:32;;;;;;;2.90;2.70;;;;;;;10.71;100.00;102046.34;4972906;28;20540;-80
2022/06/02 04:30:06;;;;;;;4.30;2.90;;;;;;;10.69;100.00;102019.69;4973578;28;20525;-79
2022/06/02 04:33:02;;;;;;;5.20;3.00;;;;;;;10.84;100.00;102049.34;4980629;28;20441;-81
2022/06/02 04:35:35;;;;;;;3.03;2.73;;;;;;;10.69;100.00;102045.69;4968688;28;20431;-81
2022/06/02 04:38:25;;;;;;;3.80;2.80;;;;;;;10.77;100.00;102049.19;4966894;28;20481;-82
2022/06/02 04:41:14;;;;;;;3.30;2.47;;;;;;;10.84;100.00;102054.69;4975127;28;20441;-80
2022/06/02 04:43:53;;;;;;;2.20;2.10;;;;;;;10.08;100.00;101952.16;4975158;28;20438;-79
2022/06/02 04:46:36;;;;;;;3.70;2.70;;;;;;;10.79;100.00;102051.69;4957576;28;20602;-82
2022/06/02 04:49:14;;;;;;;3.37;2.57;;;;;;;10.25;100.00;101974.44;4969457;28;20464;-80
2022/06/02 04:52:04;;;;;;;3.10;2.87;;;;;;;10.85;100.00;102059.09;4976525;28;21009;-79
2022/06/02 04:55:02;;;;;;;4.60;2.90;;;;;;;10.81;100.00;102038.94;4977685;28;20437;-77
2022/06/02 04:57:31;;;;;;;3.23;2.53;;;;;;;11.05;100.00;102067.56;4980196;28;20478;-77
2022/06/02 04:59:56;;;;;;;6.27;3.20;;;;;;;11.19;100.00;102057.97;4975299;28;20437;-76
2022/06/02 05:02:38;;;;;;;3.13;2.90;;;;;;;11.12;100.00;102055.16;4977916;28;20488;-82
2022/06/02 05:05:43;;;;;;;4.07;2.77;;;;;;;11.24;100.00;102055.59;4977207;28;20186;-80
2022/06/02 05:08:43;;;;;;;3.73;2.40;;;;;;;10.12;100.00;101878.44;4954367;28;20472;-79
2022/06/02 05:11:24;;;;;;;3.23;2.70;;;;;;;11.35;100.00;102078.56;4981502;28;20474;-79
2022/06/02 05:14:15;;;;;;;2.70;2.50;;;;;;;10.96;100.00;102010.38;4979973;28;20444;-79
2022/06/02 05:16:48;;;;;;;3.13;2.20;;;;;;;11.37;100.00;102073.84;4954215;28;20449;-80
2022/06/02 05:19:47;;;;;;;4.23;2.50;;;;;;;11.49;100.00;102081.38;4976654;28;20489;-80
2022/06/02 05:22:25;;;;;;;4.10;2.77;;;;;;;11.45;100.00;102080.03;4982511;28;20482;-80
2022/06/02 05:25:17;;;;;;;3.93;2.40;;;;;;;11.52;100.00;102082.88;4984780;28;20955;-80
2022/06/02 05:27:58;;;;;;;2.87;2.57;;;;;;;11.64;100.00;102078.78;4985587;28;21061;-79
2022/06/02 05:30:36;;;;;;;3.20;2.30;;;;;;;11.58;100.00;102084.03;4983059;28;20464;-80
2022/06/02 05:33:40;;;;;;;4.20;2.53;;;;;;;11.76;100.00;102081.91;4981326;28;20883;-80
2022/06/02 05:36:24;;;;;;;2.60;2.40;;;;;;;11.82;100.00;102081.19;4980570;28;20437;-79
2022/06/02 05:39:08;;;;;;;3.90;2.37;;;;;;;11.77;100.00;102105.06;4979910;28;20539;-81
2022/06/02 05:41:36;;;;;;;1.97;1.87;;;;;;;11.93;100.00;102088.91;4980896;28;20457;-79
2022/06/02 05:44:10;;;;;;;2.80;2.60;;;;;;;11.84;100.00;102084.56;4978534;28;20463;-80
2022/06/02 05:47:03;;;;;;;3.03;2.73;;;;;;;11.72;100.00;102094.03;4980188;28;20451;-79
2022/06/02 05:49:53;;;;;;;3.80;2.80;;;;;;;11.79;100.00;102070.81;4981156;28;20433;-80
2022/06/02 05:52:36;;;;;;;3.30;2.20;;;;;;;11.74;100.00;102078.56;4978852;28;20565;-78
2022/06/02 05:55:28;;;;;;;3.37;2.67;;;;;;;11.95;100.00;102103.00;4969897;28;20452;-79
2022/06/02 05:58:04;;;;;;;2.73;2.53;;;;;;;11.94;100.00;102089.72;4982306;28;20489;-78
2022/06/02 06:01:23;;;;;;;2.67;2.30;;;;;;;12.02;100.00;102113.88;4978068;28;20907;-78
2022/06/02 06:04:26;;;;;;;3.33;2.47;;;;;;;12.08;100.00;102115.88;4915818;28;20991;-80
2022/06/02 06:07:09;;;;;;;3.90;2.30;;;;;;;12.15;100.00;102108.78;4928553;28;20817;-80
2022/06/02 06:09:53;;;;;;;2.97;2.40;;;;;;;12.31;100.00;102110.50;4969797;28;20468;-78
2022/06/02 06:12:47;;;;;;;2.00;1.77;;;;;;;12.34;100.00;102110.13;4977436;28;20466;-79
2022/06/02 06:15:15;;;;;;;3.67;2.20;;;;;;;12.48;100.00;102113.06;4979035;28;20433;-79
2022/06/02 06:18:15;;;;;;;3.63;2.40;;;;;;;11.71;100.00;101987.53;4978440;28;20481;-80
2022/06/02 06:21:11;;;;;;;2.03;1.70;;;;;;;12.57;100.00;102112.00;4979139;28;20921;-79
2022/06/02 06:24:14;;;;;;;2.63;1.90;;;;;;;12.56;100.00;102107.63;4972573;28;20453;-78
2022/06/02 06:27:18;;;;;;;2.80;2.30;;;;;;;11.85;100.00;102012.81;4985313;28;20539;-81
2022/06/02 06:30:11;;;;;;;4.23;2.00;;;;;;;12.55;100.00;102111.31;4978590;28;20443;-77
2022/06/02 06:33:10;;;;;;;3.40;1.87;;;;;;;12.80;100.00;102111.97;4969446;28;20476;-79
2022/06/02 06:36:22;;;;;;;1.83;1.60;;;;;;;12.85;100.00;102109.56;4984198;28;20426;-80
2022/06/02 06:39:16;;;;;;;2.00;1.40;;;;;;;12.12;100.00;101968.41;4925256;28;20554;-86
2022/06/02 06:41:58;;;;;;;2.07;1.53;;;;;;;13.05;100.00;102121.47;4982564;28;20453;-80
2022/06/02 06:44:35;;;;;;;2.40;1.50;;;;;;;13.05;100.00;102109.88;4979762;28;20453;-80
2022/06/02 06:47:18;;;;;;;4.27;1.50;;;;;;;12.96;100.00;102094.78;4968704;28;20543;-79
2022/06/02 06:49:53;;;;;;;2.40;1.43;;;;;;;13.27;100.00;102108.97;4978470;28;20446;-77
2022/06/02 06:52:37;;;;;;;5.60;1.37;;;;;;;13.12;100.00;102060.44;4987345;28;20444;-81
2022/06/02 06:55:33;;;;;;;3.10;1.40;;;;;;;13.44;100.00;102111.50;4976869;28;20443;-78
2022/06/02 06:58:31;;;;;;;3.17;1.50;;;;;;;13.53;100.00;102124.66;4977317;28;20996;-79
2022/06/02 07:01:06;;;;;;;2.87;1.63;;;;;;;13.04;100.00;102035.47;4976479;28;20433;-82
2022/06/02 07:03:49;;;;;;;5.27;1.80;;;;;;;13.42;100.00;102130.53;4979995;28;20445;-78
2022/06/02 07:06:19;;;;;;;1.87;1.30;;;;;;;12.94;100.00;102064.53;4983648;28;20437;-78
2022/06/02 07:09:00;;;;;;;1.53;1.30;;;;;;;12.88;100.00;102031.94;4980529;28;20989;-78
2022/06/02 07:14:50;;;;;;;2.40;1.60;;;;;;;13.53;100.00;102135.44;5005299;28;20827;-80
2022/06/02 07:17:49;;;;;;;2.97;1.73;;;;;;;13.62;100.00;102141.59;4980043;28;20466;-80
2022/06/02 07:20:37;;;;;;;2.87;1.20;;;;;;;13.24;100.00;102097.69;4964814;28;20499;-78
2022/06/02 07:23:07;;;;;;;1.43;1.10;;;;;;;13.76;100.00;102146.13;4966276;28;20448;-78
2022/06/02 07:26:13;;;;;;;2.00;1.33;;;;;;;13.55;100.00;102136.13;4960513;28;20949;-78
2022/06/02 07:29:00;;;;;;;4.50;1.30;;;;;;;13.77;100.00;102147.81;4971504;28;20477;-81
2022/06/02 07:31:37;;;;;;;6.80;1.40;;;;;;;13.75;100.00;102147.16;4981851;28;20483;-80
2022/06/02 07:34:21;;;;;;;2.73;1.10;;;;;;;13.79;100.00;102147.63;4980275;28;20520;-83
2022/06/02 07:37:07;;;;;;;2.47;1.40;;;;;;;13.75;100.00;102155.25;4965189;28;20843;-82
2022/06/02 07:39:35;;;;;;;4.30;1.70;;;;;;;13.79;100.00;102161.94;4975659;28;20446;-79
2022/06/02 07:49:04;;;;;;;2.60;1.10;;;;;;;13.63;100.00;102172.94;5965860;22;20432;-88
2022/06/02 07:51:52;;;;;;;5.80;1.30;;;;;;;13.32;100.00;102116.50;5050486;28;20981;-85
2022/06/02 07:54:17;;;;;;;2.50;1.10;;;;;;;13.74;100.00;102177.00;5059520;28;20451;-85
2022/06/02 07:57:16;;;;;;;4.03;1.23;;;;;;;13.65;100.00;102162.78;5051707;28;20461;-86
2022/06/02 08:00:02;;;;;;;1.70;1.07;;;;;;;13.71;100.00;102180.06;5049338;28;20211;-87
2022/06/02 08:02:27;;;;;;;2.37;1.20;;;;;;;13.75;100.00;102173.28;5063773;22;20500;-85
2022/06/02 08:05:16;;;;;;;6.37;1.23;;;;;;;12.68;100.00;102001.19;5060389;28;20795;-84
2022/06/02 08:08:01;;;;;;;2.50;1.20;;;;;;;13.87;100.00;102190.66;5055167;28;20199;-86
2022/06/02 08:10:45;;;;;;;2.57;1.17;;;;;;;13.69;100.00;102185.66;5065460;28;20459;-85
2022/06/02 08:13:45;;;;;;;3.00;1.00;;;;;;;13.87;100.00;102187.97;5059702;28;20873;-87
2022/06/02 08:16:19;;;;;;;2.77;1.23;;;;;;;13.59;100.00;102155.44;5059442;28;20463;-85
2022/06/02 08:19:06;;;;;;;4.93;1.23;;;;;;;13.77;100.00;102164.00;5075258;28;20449;-85
2022/06/02 08:21:48;;;;;;;7.13;1.10;;;;;;;13.98;100.00;102192.06;5061263;28;20450;-81
2022/06/02 08:24:23;;;;;;;3.30;1.33;;;;;;;13.82;100.00;102200.34;5058517;28;20414;-80
2022/06/02 08:27:30;;;;;;;2.43;0.97;;;;;;;13.96;100.00;102204.88;5060026;28;20959;-89
2022/06/02 08:30:10;;;;;;;1.43;0.87;;;;;;;14.07;100.00;102196.31;5061274;28;20521;-90
2022/06/02 08:33:07;;;;;;;4.40;1.20;;;;;;;14.00;100.00;102201.63;5060129;28;20443;-85
2022/06/02 08:36:01;;;;;;;2.40;0.87;;;;;;;14.07;100.00;102204.41;5055664;28;20437;-88
2022/06/02 08:38:50;;;;;;;1.17;0.90;;;;;;;14.18;100.00;102211.19;5060320;28;20433;-85
2022/06/02 08:41:49;;;;;;;2.10;1.00;;;;;;;14.02;100.00;102212.22;5058684;28;20445;-82
2022/06/02 08:44:42;;;;;;;3.03;1.00;;;;;;;14.12;100.00;102220.03;5062875;28;20994;-86
2022/06/02 08:47:16;;;;;;;1.37;1.10;;;;;;;14.18;100.00;102222.81;5057849;28;20464;-86
2022/06/02 08:50:20;;;;;;;0.90;0.80;;;;;;;14.23;100.00;102215.00;5059407;28;20425;-84
2022/06/02 08:53:04;;;;;;;2.10;1.13;;;;;;;14.51;100.00;102229.63;5059883;28;20452;-89
2022/06/02 08:55:32;;;;;;;1.37;0.93;;;;;;;14.41;100.00;102227.25;5062332;28;20791;-89
2022/06/02 08:57:57;;;;;;;3.40;1.37;;;;;;;14.28;100.00;102235.16;5066344;28;20456;-88
2022/06/02 09:01:09;;;;;;;1.53;1.07;;;;;;;14.11;100.00;102208.38;5063894;28;20440;-85
2022/06/02 09:04:04;;;;;;;4.53;0.90;;;;;;;14.56;100.00;102233.44;5065371;28;20270;-89
2022/06/02 09:06:50;;;;;;;2.27;1.10;;;;;;;14.56;100.00;102235.31;5064488;28;20415;-89
2022/06/02 09:09:53;;;;;;;2.40;1.17;;;;;;;14.61;100.00;102241.81;5067066;28;20422;-88
2022/06/02 09:12:50;;;;;;;2.53;1.50;;;;;;;14.80;100.00;102255.72;5062714;28;20428;-85
2022/06/02 09:15:27;;;;;;;2.50;1.00;;;;;;;14.80;100.00;102243.03;5063221;28;20418;-86
2022/06/02 09:18:14;;;;;;;2.67;1.63;;;;;;;14.07;100.00;102168.50;5062079;28;20462;-87
2022/06/02 09:21:06;;;;;;;3.47;1.17;;;;;;;14.74;100.00;102257.31;5062288;28;20445;-86
2022/06/02 09:24:02;;;;;;;3.00;1.20;;;;;;;14.45;100.00;102269.00;5062637;28;20421;-85
2022/06/02 09:26:58;;;;;;;1.70;1.20;;;;;;;14.60;100.00;102269.84;5062273;28;20425;-86
2022/06/02 09:29:42;;;;;;;1.57;1.20;;;;;;;14.55;100.00;102257.94;5063851;28;20688;-86
2022/06/02 09:32:27;;;;;;;1.60;0.90;;;;;;;14.59;100.00;102259.25;5063247;28;20437;-85
2022/06/02 09:35:08;;;;;;;2.20;1.07;;;;;;;14.70;100.00;102258.75;5062483;28;20418;-87
2022/06/02 09:38:05;;;;;;;1.00;0.90;;;;;;;14.80;100.00;102267.34;5062777;28;20552;-82
2022/06/02 09:40:56;;;;;;;1.40;1.00;;;;;;;14.68;100.00;102236.47;5061511;28;20417;-85
2022/06/02 09:43:33;;;;;;;1.93;1.07;;;;;;;14.96;100.00;102255.47;5077729;28;20504;-78
2022/06/02 09:46:21;;;;;;;1.87;1.20;;;;;;;15.12;100.00;102262.47;5062421;28;20418;-80
2022/06/02 09:48:58;;;;;;;3.20;1.10;;;;;;;14.89;100.00;102259.97;5063482;28;20418;-85
2022/06/02 09:52:01;;;;;;;1.80;0.90;;;;;;;15.22;100.00;102268.38;5062653;28;20498;-81
2022/06/02 09:55:28;;;;;;;4.30;1.27;;;;;;;15.15;100.00;102262.06;5061687;28;21020;-84
2022/06/02 09:58:12;;;;;;;1.57;0.87;;;;;;;15.18;100.00;102261.69;4965509;28;20469;-85
2022/06/02 10:00:55;;;;;;;2.50;1.30;;;;;;;15.45;100.00;102256.47;4968776;28;20438;-78
2022/06/02 10:03:42;;;;;;;4.00;0.90;;;;;;;15.62;100.00;102259.72;5048345;28;20544;-81
2022/06/02 10:06:51;;;;;;;2.13;1.10;;;;;;;15.45;100.00;102267.28;5061975;28;20417;-79
2022/06/02 10:09:40;;;;;;;1.27;0.73;;;;;;;15.38;100.00;102259.97;5059587;28;20433;-88
2022/06/02 10:12:55;;;;;;;2.13;1.10;;;;;;;15.68;100.00;102265.22;5065447;28;20495;-86
2022/06/02 10:15:46;;;;;;;4.20;0.90;;;;;;;15.59;100.00;102266.38;5063013;28;20421;-90
2022/06/02 10:18:30;;;;;;;3.93;0.93;;;;;;;15.67;100.00;102263.50;5064137;28;20457;-84
2022/06/02 10:21:33;;;;;;;3.77;1.30;;;;;;;15.35;100.00;102259.53;5063987;28;20426;-84
2022/06/02 10:24:15;;;;;;;2.73;0.97;;;;;;;15.38;100.00;102264.56;5064962;28;20410;-82
2022/06/02 10:27:18;;;;;;;1.40;0.80;;;;;;;15.78;100.00;102270.28;5060869;28;20988;-79
2022/06/02 10:30:21;;;;;;;4.10;1.30;;;;;;;15.70;100.00;102281.25;5062387;28;20773;-76
2022/06/02 10:33:08;;;;;;;1.27;0.90;;;;;;;15.67;100.00;102278.91;5061055;28;20491;-81
2022/06/02 10:36:03;;;;;;;3.00;1.03;;;;;;;15.80;100.00;102289.88;5063270;28;20902;-84
2022/06/02 10:38:59;;;;;;;2.20;0.90;;;;;;;15.46;100.00;102279.81;5063941;28;20465;-82
2022/06/02 10:41:30;;;;;;;2.50;0.80;;;;;;;15.57;100.00;102290.91;5079968;28;20460;-84
2022/06/02 10:43:58;;;;;;;1.40;0.80;;;;;;;15.65;100.00;102283.69;5061028;28;20438;-83
2022/06/02 10:46:49;;;;;;;1.83;1.00;;;;;;;15.34;100.00;102295.72;5062404;28;20441;-85
2022/06/02 10:49:30;;;;;;;3.63;0.90;;;;;;;15.53;100.00;102291.50;5059029;28;20434;-77
2022/06/02 10:52:26;;;;;;;3.50;1.07;;;;;;;15.49;100.00;102295.63;5059740;28;20457;-77
2022/06/02 10:55:10;;;;;;;3.80;1.00;;;;;;;15.28;100.00;102291.09;5061436;28;20429;-85
2022/06/02 10:58:14;;;;;;;1.17;0.70;;;;;;;15.60;100.00;102277.00;5061376;28;20461;-85
2022/06/02 11:00:42;;;;;;;1.63;1.00;;;;;;;15.80;100.00;102293.41;5060494;28;20438;-80
2022/06/02 11:03:26;;;;;;;1.73;0.90;;;;;;;16.19;100.00;102291.94;5061571;28;20453;-80
2022/06/02 11:06:21;;;;;;;1.33;0.90;;;;;;;16.07;100.00;102284.59;5061193;28;20468;-80
2022/06/02 11:09:30;;;;;;;1.37;1.07;;;;;;;15.72;100.00;102296.25;5061776;28;20976;-81
2022/06/02 11:12:27;;;;;;;2.80;1.40;;;;;;;16.36;100.00;102289.75;5035492;28;20498;-78
2022/06/02 11:15:15;;;;;;;4.63;1.50;;;;;;;16.42;100.00;102288.94;5060640;28;21003;-84
2022/06/02 11:18:28;;;;;;;1.50;0.87;;;;;;;15.79;100.00;102289.03;5059200;28;20460;-77
2022/06/02 11:21:07;;;;;;;1.93;1.13;;;;;;;15.36;100.00;102231.47;5039198;28;20434;-78
2022/06/02 11:23:49;;;;;;;3.87;1.27;;;;;;;15.54;100.00;102280.50;5056821;28;20953;-84
2022/06/02 11:26:45;;;;;;;1.43;1.00;;;;;;;15.63;100.00;102288.47;5060098;28;20532;-82
2022/06/02 11:29:41;;;;;;;1.20;1.07;;;;;;;15.66;100.00;102283.50;5056981;28;20803;-81
2022/06/02 11:32:09;;;;;;;2.43;0.90;;;;;;;16.03;100.00;102285.00;5058629;28;20457;-82
2022/06/02 11:34:59;;;;;;;6.73;1.43;;;;;;;15.67;100.00;102297.84;5061213;28;20422;-82
2022/06/02 11:37:43;;;;;;;4.83;1.00;;;;;;;16.36;100.00;102281.63;5061121;28;20465;-80
2022/06/02 11:40:08;;;;;;;2.60;0.80;;;;;;;16.51;100.00;102278.75;5059161;28;20447;-79
2022/06/02 11:42:58;;;;;;;1.57;0.90;;;;;;;16.53;100.00;102275.84;5057337;28;20458;-82
2022/06/02 11:45:35;;;;;;;2.30;0.90;;;;;;;16.36;100.00;102270.78;5057226;28;20212;-81
2022/06/02 11:48:21;;;;;;;3.07;1.47;;;;;;;16.21;100.00;102270.94;5059294;28;20467;-78
2022/06/02 11:51:08;;;;;;;5.33;1.40;;;;;;;16.25;100.00;102274.06;5058814;28;20422;-83
2022/06/02 11:53:59;;;;;;;2.33;1.00;;;;;;;16.59;100.00;102280.44;5062215;28;20433;-84
2022/06/02 11:57:17;;;;;;;1.50;1.03;;;;;;;16.32;100.00;102279.53;5059319;28;20472;-80
2022/06/02 12:00:18;;;;;;;1.33;1.07;;;;;;;16.06;100.00;102272.13;5060827;28;20454;-77
2022/06/02 12:03:16;;;;;;;1.37;0.97;;;;;;;16.66;100.00;102284.00;5023902;28;20940;-80
2022/06/02 12:05:44;;;;;;;1.57;1.00;;;;;;;16.16;100.00;102273.41;5058551;28;20429;-77
2022/06/02 12:08:27;;;;;;;4.40;1.57;;;;;;;16.58;100.00;102267.97;5058942;28;20524;-81
2022/06/02 12:11:25;;;;;;;2.43;1.20;;;;;;;15.52;100.00;102098.66;5056737;28;20437;-78
2022/06/02 12:14:28;;;;;;;3.93;1.40;;;;;;;16.34;100.00;102274.72;5059958;28;20974;-78
2022/06/02 12:17:27;;;;;;;3.30;1.50;;;;;;;16.50;100.00;102272.50;5059060;28;20460;-84
2022/06/02 12:20:14;;;;;;;4.60;1.27;;;;;;;16.65;100.00;102266.09;5057169;28;20450;-81
2022/06/02 12:23:01;;;;;;;1.67;1.10;;;;;;;16.80;100.00;102269.47;5059021;28;20453;-84
2022/06/02 12:25:32;;;;;;;2.93;1.13;;;;;;;17.04;100.00;102270.78;5054483;28;20483;-81
2022/06/02 12:28:24;;;;;;;2.37;1.20;;;;;;;16.26;100.00;102165.59;5054162;28;20917;-82
2022/06/02 12:31:18;;;;;;;1.63;1.20;;;;;;;17.05;100.00;102271.63;5059755;28;20516;-85
2022/06/02 12:34:02;;;;;;;1.17;0.80;;;;;;;17.00;100.00;102279.53;5054827;28;20433;-87
2022/06/02 12:49:06;;;;;;;2.70;1.47;;;;;;;16.77;100.00;102285.31;5104861;27;20570;-71
2022/06/02 12:51:59;;;;;;;2.40;1.60;;;;;;;16.65;100.00;102282.34;5107950;28;20435;-71
2022/06/02 12:54:39;;;;;;;1.93;1.40;;;;;;;16.55;100.00;102285.44;5126466;27;20457;-72
2022/06/02 12:57:43;;;;;;;3.10;1.80;;;;;;;16.50;100.00;102279.78;5109376;27;20525;-73
2022/06/02 13:00:36;;;;;;;4.43;1.60;;;;;;;16.35;100.00;102277.25;5123995;27;20431;-72
2022/06/02 13:03:29;;;;;;;2.73;1.50;;;;;;;16.20;100.00;102263.88;5126075;27;20762;-75
2022/06/02 13:06:27;;;;;;;3.03;1.47;;;;;;;16.61;100.00;102281.09;5122392;27;20469;-72
2022/06/02 13:09:23;;;;;;;1.33;1.00;;;;;;;16.80;100.00;102266.78;5130043;27;20661;-71
2022/06/02 13:12:19;;;;;;;2.03;0.97;;;;;;;17.12;100.00;102275.97;5130896;27;20434;-71